Fruitland, ID

6:53 PM MST on December 28, 2014 (GMT -0700)
MesoWest ONTARIO OR US AGRIMET | Change Station
CLOSE
Current Station
Personal Weather Station
Location: Fruitland, ID
Elevation: 2259 ft
Nearby Weather Stations

Elev 2259 ft 43.98 °N, 117.02 °W | Updated 53 minutes ago

Overcast
Overcast
28 °F
Feels Like 22 °F
N
5
Wind Variable Wind from North
Gusts 7.0 mph

Today
High -- | Low -- °F
--% Chance of Precip.
Yesterday
High -- | Low -- °F
Precip. -- in
8:21 AM 5:17 PM
First Quarter, 53% visible
Pressure 30.21 in
Visibility 9.0 miles
Clouds Overcast 500 ft
Windchill 22 °F
Dew Point 28 °F
Humidity 99%
Rainfall 0.00 in
Snow Depth Not available.
UV 0 out of 12
Pollen .10 out of 12
Air Quality Not available.
Flu Activity Not available.
METAR KONO 290053Z AUTO 33005KT 9SM OVC005 M02/M03 A3014 RMK AO2 SLP230 T10171028

More Conditions Fewer Conditions

Pressure 30.21 in
Visibility 9.0 miles
Clouds Overcast 500 ft
Windchill 22 °F
Dew Point 28 °F
Humidity 99%
Rainfall 0.00 in
Snow Depth Not available.
UV 0 out of 12
Pollen .10 out of 12
Air Quality Not available.
Flu Activity Not available.
METAR KONO 290053Z AUTO 33005KT 9SM OVC005 M02/M03 A3014 RMK AO2 SLP230 T10171028

More Conditions Fewer Conditions

10-Day Weather Forecast

Almanac

Astronomy

Dec. 28, 2014 Rise Set
Actual Time
Civil Twilight
Nautical Twilight
Astronomical Twilight
Moon
Length of Visible Light
Length of Day
Tomorrow will be .
, % of the Moon is Illuminated

Today's Extremes

State Highs State Lows

Community

WunderPhotos

Upload Photos

1,781,489 photos uploaded!

WunderBlogs® & News

Nearby

Air Quality

  Air Quality AQ Index Pollutant
Not available.

Snow Depth

Station Depth Elevation

Earthquake Activity

City Distance Mag. Time & Date
Minimum magnitude displayed is 2.5.

Coastal Water Temperatures

Place Temperature

Nearby Weather Stations